Terminal Aerodrome Forecast
Issued by NWS

Home | Current Version | Previous Version | Text Only | Print | Product List | Glossary On
Versions: 1 2 3 4 5 6 7 8 9 10 11 12 13 14 15 16 17 18 19 20 21 22 23 24 25
255
FTUS41 KBGM 210529
TAFELM
TAF
KELM 210529Z 2106/2206 00000KT 3SM BR SKC
     FM210800 00000KT 3/4SM BR SCT002
      TEMPO 2108/2112 1/4SM FG VV001
     FM211400 VRB03KT P6SM SKC=

USA.gov is the U.S. government's official web portal to all federal, state and local government web resources and services.